sensor_id;sensor_type;location;lat;lon;timestamp;P1;durP1;ratioP1;P2;durP2;ratioP2
9888;SDS011;4983;42.112;24.738;2024-02-14T00:00:10;1.05;;;1.05;;
9888;SDS011;4983;42.112;24.738;2024-02-14T00:02:39;1.27;;;1.27;;
9888;SDS011;4983;42.112;24.738;2024-02-14T00:05:06;1.60;;;1.50;;
9888;SDS011;4983;42.112;24.738;2024-02-14T00:07:32;1.40;;;1.40;;
9888;SDS011;4983;42.112;24.738;2024-02-14T00:09:58;1.00;;;1.00;;
9888;SDS011;4983;42.112;24.738;2024-02-14T00:12:23;1.35;;;1.35;;
9888;SDS011;4983;42.112;24.738;2024-02-14T00:14:49;1.15;;;1.15;;
9888;SDS011;4983;42.112;24.738;2024-02-14T00:17:15;1.75;;;1.65;;
9888;SDS011;4983;42.112;24.738;2024-02-14T00:19:41;1.33;;;1.30;;
9888;SDS011;4983;42.112;24.738;2024-02-14T00:22:06;1.48;;;1.48;;
9888;SDS011;4983;42.112;24.738;2024-02-14T00:24:32;1.75;;;1.65;;
9888;SDS011;4983;42.112;24.738;2024-02-14T00:26:59;1.48;;;1.38;;
9888;SDS011;4983;42.112;24.738;2024-02-14T00:29:25;1.58;;;1.48;;
9888;SDS011;4983;42.112;24.738;2024-02-14T00:31:51;1.50;;;1.13;;
9888;SDS011;4983;42.112;24.738;2024-02-14T00:34:16;1.00;;;1.00;;
9888;SDS011;4983;42.112;24.738;2024-02-14T00:36:42;1.58;;;1.58;;
9888;SDS011;4983;42.112;24.738;2024-02-14T00:39:07;2.00;;;1.25;;
9888;SDS011;4983;42.112;24.738;2024-02-14T00:41:34;1.27;;;1.20;;
9888;SDS011;4983;42.112;24.738;2024-02-14T00:44:00;0.95;;;0.95;;
9888;SDS011;4983;42.112;24.738;2024-02-14T00:46:27;1.08;;;1.08;;
9888;SDS011;4983;42.112;24.738;2024-02-14T00:48:52;1.13;;;1.13;;
9888;SDS011;4983;42.112;24.738;2024-02-14T00:51:19;1.05;;;1.05;;
9888;SDS011;4983;42.112;24.738;2024-02-14T00:53:45;0.80;;;0.80;;
9888;SDS011;4983;42.112;24.738;2024-02-14T00:56:10;1.08;;;1.05;;
9888;SDS011;4983;42.112;24.738;2024-02-14T00:58:36;1.58;;;1.50;;
9888;SDS011;4983;42.112;24.738;2024-02-14T01:01:01;1.48;;;1.48;;
9888;SDS011;4983;42.112;24.738;2024-02-14T01:03:27;1.17;;;1.17;;
9888;SDS011;4983;42.112;24.738;2024-02-14T01:05:52;1.20;;;1.20;;
9888;SDS011;4983;42.112;24.738;2024-02-14T01:08:18;1.48;;;1.38;;
9888;SDS011;4983;42.112;24.738;2024-02-14T01:10:43;1.10;;;1.10;;
9888;SDS011;4983;42.112;24.738;2024-02-14T01:13:11;1.25;;;1.13;;
9888;SDS011;4983;42.112;24.738;2024-02-14T01:15:37;1.50;;;1.40;;
9888;SDS011;4983;42.112;24.738;2024-02-14T01:18:03;2.35;;;2.25;;
9888;SDS011;4983;42.112;24.738;2024-02-14T01:20:28;1.25;;;1.15;;
9888;SDS011;4983;42.112;24.738;2024-02-14T01:22:54;2.08;;;1.98;;
9888;SDS011;4983;42.112;24.738;2024-02-14T01:25:20;1.38;;;1.35;;
9888;SDS011;4983;42.112;24.738;2024-02-14T01:27:46;1.40;;;1.40;;
9888;SDS011;4983;42.112;24.738;2024-02-14T01:30:11;1.50;;;1.40;;
9888;SDS011;4983;42.112;24.738;2024-02-14T01:32:37;1.77;;;1.77;;
9888;SDS011;4983;42.112;24.738;2024-02-14T01:35:04;1.63;;;1.52;;
9888;SDS011;4983;42.112;24.738;2024-02-14T01:37:29;1.83;;;1.73;;
9888;SDS011;4983;42.112;24.738;2024-02-14T01:39:55;1.60;;;1.50;;
9888;SDS011;4983;42.112;24.738;2024-02-14T01:42:20;1.52;;;1.52;;
9888;SDS011;4983;42.112;24.738;2024-02-14T01:44:46;1.58;;;1.48;;
9888;SDS011;4983;42.112;24.738;2024-02-14T01:47:11;1.83;;;1.73;;
9888;SDS011;4983;42.112;24.738;2024-02-14T01:49:38;1.45;;;1.35;;
9888;SDS011;4983;42.112;24.738;2024-02-14T01:52:04;1.15;;;1.05;;
9888;SDS011;4983;42.112;24.738;2024-02-14T01:54:30;2.17;;;2.08;;
9888;SDS011;4983;42.112;24.738;2024-02-14T01:56:56;1.65;;;1.60;;
9888;SDS011;4983;42.112;24.738;2024-02-14T01:59:23;1.65;;;1.55;;
9888;SDS011;4983;42.112;24.738;2024-02-14T02:01:49;1.60;;;1.50;;
9888;SDS011;4983;42.112;24.738;2024-02-14T02:04:17;1.15;;;1.15;;
9888;SDS011;4983;42.112;24.738;2024-02-14T02:06:43;1.70;;;1.60;;
9888;SDS011;4983;42.112;24.738;2024-02-14T02:09:09;1.65;;;1.60;;
9888;SDS011;4983;42.112;24.738;2024-02-14T02:11:50;2.00;;;1.90;;
9888;SDS011;4983;42.112;24.738;2024-02-14T02:14:19;1.63;;;1.55;;
9888;SDS011;4983;42.112;24.738;2024-02-14T02:16:45;1.38;;;1.38;;
9888;SDS011;4983;42.112;24.738;2024-02-14T02:19:11;1.40;;;1.40;;
9888;SDS011;4983;42.112;24.738;2024-02-14T02:21:37;1.17;;;1.15;;
9888;SDS011;4983;42.112;24.738;2024-02-14T02:24:03;1.65;;;1.20;;
9888;SDS011;4983;42.112;24.738;2024-02-14T02:26:29;0.80;;;0.80;;
9888;SDS011;4983;42.112;24.738;2024-02-14T02:28:54;3.53;;;2.38;;
9888;SDS011;4983;42.112;24.738;2024-02-14T02:31:20;1.83;;;1.73;;
9888;SDS011;4983;42.112;24.738;2024-02-14T02:33:46;1.13;;;1.13;;
9888;SDS011;4983;42.112;24.738;2024-02-14T02:36:12;0.95;;;0.95;;
9888;SDS011;4983;42.112;24.738;2024-02-14T02:38:37;1.65;;;1.55;;
9888;SDS011;4983;42.112;24.738;2024-02-14T02:41:03;2.65;;;2.55;;
9888;SDS011;4983;42.112;24.738;2024-02-14T02:43:33;1.70;;;1.60;;
9888;SDS011;4983;42.112;24.738;2024-02-14T02:45:59;1.10;;;0.98;;
9888;SDS011;4983;42.112;24.738;2024-02-14T02:48:24;1.25;;;1.25;;
9888;SDS011;4983;42.112;24.738;2024-02-14T02:50:50;1.80;;;1.70;;
9888;SDS011;4983;42.112;24.738;2024-02-14T02:53:17;1.45;;;1.35;;
9888;SDS011;4983;42.112;24.738;2024-02-14T02:55:43;2.08;;;1.98;;
9888;SDS011;4983;42.112;24.738;2024-02-14T02:58:08;1.70;;;1.60;;
9888;SDS011;4983;42.112;24.738;2024-02-14T03:00:34;1.80;;;1.70;;
9888;SDS011;4983;42.112;24.738;2024-02-14T03:03:00;2.15;;;2.05;;
9888;SDS011;4983;42.112;24.738;2024-02-14T03:05:27;2.75;;;2.65;;
9888;SDS011;4983;42.112;24.738;2024-02-14T03:07:54;1.63;;;1.52;;
9888;SDS011;4983;42.112;24.738;2024-02-14T03:10:22;1.08;;;0.98;;
9888;SDS011;4983;42.112;24.738;2024-02-14T03:12:49;1.58;;;1.55;;
9888;SDS011;4983;42.112;24.738;2024-02-14T03:15:15;2.78;;;2.58;;
9888;SDS011;4983;42.112;24.738;2024-02-14T03:17:41;1.98;;;1.88;;
9888;SDS011;4983;42.112;24.738;2024-02-14T03:20:07;1.13;;;1.02;;
9888;SDS011;4983;42.112;24.738;2024-02-14T03:22:43;1.77;;;1.67;;
9888;SDS011;4983;42.112;24.738;2024-02-14T03:25:12;1.30;;;1.17;;
9888;SDS011;4983;42.112;24.738;2024-02-14T03:27:41;2.30;;;2.17;;
9888;SDS011;4983;42.112;24.738;2024-02-14T03:30:07;1.90;;;1.80;;
9888;SDS011;4983;42.112;24.738;2024-02-14T03:32:33;2.50;;;2.30;;
9888;SDS011;4983;42.112;24.738;2024-02-14T03:34:58;1.75;;;1.65;;
9888;SDS011;4983;42.112;24.738;2024-02-14T03:37:25;2.85;;;2.55;;
9888;SDS011;4983;42.112;24.738;2024-02-14T03:39:51;2.72;;;2.63;;
9888;SDS011;4983;42.112;24.738;2024-02-14T03:42:17;2.25;;;2.13;;
9888;SDS011;4983;42.112;24.738;2024-02-14T03:44:43;1.75;;;1.65;;
9888;SDS011;4983;42.112;24.738;2024-02-14T03:47:08;2.85;;;2.03;;
9888;SDS011;4983;42.112;24.738;2024-02-14T03:49:34;2.55;;;2.38;;
9888;SDS011;4983;42.112;24.738;2024-02-14T03:52:00;2.70;;;2.55;;
9888;SDS011;4983;42.112;24.738;2024-02-14T03:54:26;2.60;;;2.40;;
9888;SDS011;4983;42.112;24.738;2024-02-14T03:56:52;2.25;;;2.08;;
9888;SDS011;4983;42.112;24.738;2024-02-14T03:59:18;2.65;;;2.45;;
9888;SDS011;4983;42.112;24.738;2024-02-14T04:01:49;2.38;;;2.28;;
9888;SDS011;4983;42.112;24.738;2024-02-14T04:04:16;2.80;;;2.60;;
9888;SDS011;4983;42.112;24.738;2024-02-14T04:06:42;2.40;;;2.20;;
9888;SDS011;4983;42.112;24.738;2024-02-14T04:09:09;2.83;;;2.63;;
9888;SDS011;4983;42.112;24.738;2024-02-14T04:11:34;4.10;;;2.90;;
9888;SDS011;4983;42.112;24.738;2024-02-14T04:14:00;2.85;;;2.65;;
9888;SDS011;4983;42.112;24.738;2024-02-14T04:16:25;2.92;;;2.72;;
9888;SDS011;4983;42.112;24.738;2024-02-14T04:18:51;3.00;;;2.83;;
9888;SDS011;4983;42.112;24.738;2024-02-14T04:21:18;2.38;;;1.50;;
9888;SDS011;4983;42.112;24.738;2024-02-14T04:23:43;3.50;;;3.33;;
9888;SDS011;4983;42.112;24.738;2024-02-14T04:26:09;2.38;;;2.17;;
9888;SDS011;4983;42.112;24.738;2024-02-14T04:28:34;3.03;;;1.95;;
9888;SDS011;4983;42.112;24.738;2024-02-14T04:31:00;3.40;;;3.20;;
9888;SDS011;4983;42.112;24.738;2024-02-14T04:33:25;2.90;;;2.22;;
9888;SDS011;4983;42.112;24.738;2024-02-14T04:35:51;3.17;;;2.13;;
9888;SDS011;4983;42.112;24.738;2024-02-14T04:38:16;2.65;;;2.45;;
9888;SDS011;4983;42.112;24.738;2024-02-14T04:40:44;2.35;;;2.15;;
9888;SDS011;4983;42.112;24.738;2024-02-14T04:43:10;2.63;;;2.42;;
9888;SDS011;4983;42.112;24.738;2024-02-14T04:45:35;2.90;;;2.70;;
9888;SDS011;4983;42.112;24.738;2024-02-14T04:48:01;3.25;;;2.95;;
9888;SDS011;4983;42.112;24.738;2024-02-14T04:50:26;3.65;;;3.35;;
9888;SDS011;4983;42.112;24.738;2024-02-14T04:52:52;2.97;;;2.78;;
9888;SDS011;4983;42.112;24.738;2024-02-14T04:55:17;3.35;;;3.13;;
9888;SDS011;4983;42.112;24.738;2024-02-14T04:57:43;5.20;;;4.88;;
9888;SDS011;4983;42.112;24.738;2024-02-14T05:00:09;2.70;;;2.53;;
9888;SDS011;4983;42.112;24.738;2024-02-14T05:02:35;4.47;;;3.17;;
9888;SDS011;4983;42.112;24.738;2024-02-14T05:05:02;5.28;;;3.60;;
9888;SDS011;4983;42.112;24.738;2024-02-14T05:07:28;4.03;;;3.75;;
9888;SDS011;4983;42.112;24.738;2024-02-14T05:09:54;3.28;;;3.08;;
9888;SDS011;4983;42.112;24.738;2024-02-14T05:12:21;3.35;;;3.05;;
9888;SDS011;4983;42.112;24.738;2024-02-14T05:14:47;3.25;;;3.05;;
9888;SDS011;4983;42.112;24.738;2024-02-14T05:17:13;3.85;;;3.25;;
9888;SDS011;4983;42.112;24.738;2024-02-14T05:19:41;3.95;;;3.25;;
9888;SDS011;4983;42.112;24.738;2024-02-14T05:22:08;3.50;;;3.17;;
9888;SDS011;4983;42.112;24.738;2024-02-14T05:24:33;3.63;;;3.33;;
9888;SDS011;4983;42.112;24.738;2024-02-14T05:27:00;3.05;;;2.20;;
9888;SDS011;4983;42.112;24.738;2024-02-14T05:29:26;4.18;;;3.35;;
9888;SDS011;4983;42.112;24.738;2024-02-14T05:31:51;4.13;;;3.75;;
9888;SDS011;4983;42.112;24.738;2024-02-14T05:34:20;4.53;;;4.13;;
9888;SDS011;4983;42.112;24.738;2024-02-14T05:36:46;5.07;;;3.92;;
9888;SDS011;4983;42.112;24.738;2024-02-14T05:39:11;3.97;;;3.58;;
9888;SDS011;4983;42.112;24.738;2024-02-14T05:41:37;3.65;;;3.35;;
9888;SDS011;4983;42.112;24.738;2024-02-14T05:44:03;3.97;;;3.67;;
9888;SDS011;4983;42.112;24.738;2024-02-14T05:46:29;3.13;;;2.90;;
9888;SDS011;4983;42.112;24.738;2024-02-14T05:48:54;4.40;;;3.28;;
9888;SDS011;4983;42.112;24.738;2024-02-14T05:51:22;3.25;;;3.05;;
9888;SDS011;4983;42.112;24.738;2024-02-14T05:53:47;3.22;;;2.92;;
9888;SDS011;4983;42.112;24.738;2024-02-14T05:56:13;5.10;;;4.60;;
9888;SDS011;4983;42.112;24.738;2024-02-14T05:58:38;3.85;;;3.50;;
9888;SDS011;4983;42.112;24.738;2024-02-14T06:01:04;4.30;;;3.75;;
9888;SDS011;4983;42.112;24.738;2024-02-14T06:03:30;3.63;;;3.33;;
9888;SDS011;4983;42.112;24.738;2024-02-14T06:05:56;3.33;;;3.03;;
9888;SDS011;4983;42.112;24.738;2024-02-14T06:08:21;3.97;;;3.67;;
9888;SDS011;4983;42.112;24.738;2024-02-14T06:10:48;3.15;;;2.85;;
9888;SDS011;4983;42.112;24.738;2024-02-14T06:13:14;3.72;;;3.53;;
9888;SDS011;4983;42.112;24.738;2024-02-14T06:15:40;3.80;;;3.40;;
9888;SDS011;4983;42.112;24.738;2024-02-14T06:18:06;2.50;;;2.30;;
9888;SDS011;4983;42.112;24.738;2024-02-14T06:20:31;3.72;;;3.42;;
9888;SDS011;4983;42.112;24.738;2024-02-14T06:22:57;4.43;;;4.03;;
9888;SDS011;4983;42.112;24.738;2024-02-14T06:25:23;3.42;;;3.13;;
9888;SDS011;4983;42.112;24.738;2024-02-14T06:27:48;5.30;;;4.80;;
9888;SDS011;4983;42.112;24.738;2024-02-14T06:30:14;4.63;;;4.18;;
9888;SDS011;4983;42.112;24.738;2024-02-14T06:32:40;3.60;;;3.35;;
9888;SDS011;4983;42.112;24.738;2024-02-14T06:35:06;3.38;;;3.17;;
9888;SDS011;4983;42.112;24.738;2024-02-14T06:37:31;3.38;;;3.08;;
9888;SDS011;4983;42.112;24.738;2024-02-14T06:39:57;4.40;;;3.05;;
9888;SDS011;4983;42.112;24.738;2024-02-14T06:42:23;4.28;;;3.30;;
9888;SDS011;4983;42.112;24.738;2024-02-14T06:44:48;3.78;;;3.47;;
9888;SDS011;4983;42.112;24.738;2024-02-14T06:47:14;4.55;;;4.13;;
9888;SDS011;4983;42.112;24.738;2024-02-14T06:49:40;3.63;;;3.40;;
9888;SDS011;4983;42.112;24.738;2024-02-14T06:52:05;4.22;;;3.92;;
9888;SDS011;4983;42.112;24.738;2024-02-14T06:54:31;4.32;;;2.92;;
9888;SDS011;4983;42.112;24.738;2024-02-14T06:56:56;4.72;;;4.28;;
9888;SDS011;4983;42.112;24.738;2024-02-14T06:59:22;5.82;;;5.40;;
9888;SDS011;4983;42.112;24.738;2024-02-14T07:01:48;5.35;;;3.63;;
9888;SDS011;4983;42.112;24.738;2024-02-14T07:04:13;3.67;;;3.38;;
9888;SDS011;4983;42.112;24.738;2024-02-14T07:06:39;4.50;;;4.07;;
9888;SDS011;4983;42.112;24.738;2024-02-14T07:09:04;5.22;;;3.38;;
9888;SDS011;4983;42.112;24.738;2024-02-14T07:11:31;4.13;;;3.72;;
9888;SDS011;4983;42.112;24.738;2024-02-14T07:13:56;4.70;;;4.15;;
9888;SDS011;4983;42.112;24.738;2024-02-14T07:16:22;4.40;;;3.97;;
9888;SDS011;4983;42.112;24.738;2024-02-14T07:18:49;4.07;;;3.70;;
9888;SDS011;4983;42.112;24.738;2024-02-14T07:21:14;4.47;;;3.38;;
9888;SDS011;4983;42.112;24.738;2024-02-14T07:23:40;5.38;;;4.88;;
9888;SDS011;4983;42.112;24.738;2024-02-14T07:26:05;5.57;;;4.15;;
9888;SDS011;4983;42.112;24.738;2024-02-14T07:28:31;4.80;;;3.67;;
9888;SDS011;4983;42.112;24.738;2024-02-14T07:30:57;3.70;;;3.38;;
9888;SDS011;4983;42.112;24.738;2024-02-14T07:33:22;6.63;;;4.53;;
9888;SDS011;4983;42.112;24.738;2024-02-14T07:35:48;5.63;;;5.03;;
9888;SDS011;4983;42.112;24.738;2024-02-14T07:38:15;8.52;;;6.13;;
9888;SDS011;4983;42.112;24.738;2024-02-14T07:40:41;4.20;;;3.63;;
9888;SDS011;4983;42.112;24.738;2024-02-14T07:43:07;6.30;;;4.68;;
9888;SDS011;4983;42.112;24.738;2024-02-14T07:45:32;4.28;;;3.95;;
9888;SDS011;4983;42.112;24.738;2024-02-14T07:47:58;6.28;;;4.30;;
9888;SDS011;4983;42.112;24.738;2024-02-14T07:50:24;3.97;;;3.67;;
9888;SDS011;4983;42.112;24.738;2024-02-14T07:52:49;5.13;;;4.63;;
9888;SDS011;4983;42.112;24.738;2024-02-14T07:55:15;4.47;;;4.10;;
9888;SDS011;4983;42.112;24.738;2024-02-14T07:57:41;4.97;;;4.15;;
9888;SDS011;4983;42.112;24.738;2024-02-14T08:00:07;4.38;;;4.00;;
9888;SDS011;4983;42.112;24.738;2024-02-14T08:02:33;5.22;;;4.72;;
9888;SDS011;4983;42.112;24.738;2024-02-14T08:04:59;7.03;;;5.38;;
9888;SDS011;4983;42.112;24.738;2024-02-14T08:07:25;5.75;;;5.18;;
9888;SDS011;4983;42.112;24.738;2024-02-14T08:09:51;6.13;;;5.43;;
9888;SDS011;4983;42.112;24.738;2024-02-14T08:12:16;5.97;;;5.15;;
9888;SDS011;4983;42.112;24.738;2024-02-14T08:14:42;3.88;;;3.40;;
9888;SDS011;4983;42.112;24.738;2024-02-14T08:17:07;4.43;;;3.85;;
9888;SDS011;4983;42.112;24.738;2024-02-14T08:19:33;5.72;;;4.72;;
9888;SDS011;4983;42.112;24.738;2024-02-14T08:21:59;6.72;;;4.25;;
9888;SDS011;4983;42.112;24.738;2024-02-14T08:24:26;5.07;;;4.07;;
9888;SDS011;4983;42.112;24.738;2024-02-14T08:26:52;4.72;;;4.00;;
9888;SDS011;4983;42.112;24.738;2024-02-14T08:29:18;5.70;;;5.13;;
9888;SDS011;4983;42.112;24.738;2024-02-14T08:31:44;7.57;;;6.60;;
9888;SDS011;4983;42.112;24.738;2024-02-14T08:34:09;8.45;;;6.90;;
9888;SDS011;4983;42.112;24.738;2024-02-14T08:36:35;6.70;;;6.00;;
9888;SDS011;4983;42.112;24.738;2024-02-14T08:39:09;5.70;;;5.00;;
9888;SDS011;4983;42.112;24.738;2024-02-14T08:41:38;7.32;;;6.47;;
9888;SDS011;4983;42.112;24.738;2024-02-14T08:44:06;7.53;;;5.05;;
9888;SDS011;4983;42.112;24.738;2024-02-14T08:46:32;6.13;;;5.07;;
9888;SDS011;4983;42.112;24.738;2024-02-14T08:49:00;6.90;;;6.22;;
9888;SDS011;4983;42.112;24.738;2024-02-14T08:51:27;8.18;;;4.82;;
9888;SDS011;4983;42.112;24.738;2024-02-14T08:53:53;6.68;;;6.00;;
9888;SDS011;4983;42.112;24.738;2024-02-14T08:56:20;6.80;;;6.10;;
9888;SDS011;4983;42.112;24.738;2024-02-14T08:58:47;7.15;;;4.65;;
9888;SDS011;4983;42.112;24.738;2024-02-14T09:01:13;9.15;;;6.72;;
9888;SDS011;4983;42.112;24.738;2024-02-14T09:03:39;6.75;;;6.05;;
9888;SDS011;4983;42.112;24.738;2024-02-14T09:06:05;7.35;;;6.57;;
9888;SDS011;4983;42.112;24.738;2024-02-14T09:08:30;9.60;;;7.07;;
9888;SDS011;4983;42.112;24.738;2024-02-14T09:10:56;7.65;;;6.45;;
9888;SDS011;4983;42.112;24.738;2024-02-14T09:13:23;7.32;;;6.45;;
9888;SDS011;4983;42.112;24.738;2024-02-14T09:15:49;9.13;;;6.45;;
9888;SDS011;4983;42.112;24.738;2024-02-14T09:18:16;10.63;;;6.85;;
9888;SDS011;4983;42.112;24.738;2024-02-14T09:20:44;7.00;;;6.07;;
9888;SDS011;4983;42.112;24.738;2024-02-14T09:23:11;8.02;;;5.88;;
9888;SDS011;4983;42.112;24.738;2024-02-14T09:25:38;9.10;;;5.57;;
9888;SDS011;4983;42.112;24.738;2024-02-14T09:28:04;7.95;;;5.70;;
9888;SDS011;4983;42.112;24.738;2024-02-14T09:30:31;8.20;;;6.72;;
9888;SDS011;4983;42.112;24.738;2024-02-14T09:32:57;6.63;;;4.88;;
9888;SDS011;4983;42.112;24.738;2024-02-14T09:35:23;11.55;;;6.20;;
9888;SDS011;4983;42.112;24.738;2024-02-14T09:37:49;9.07;;;6.63;;
9888;SDS011;4983;42.112;24.738;2024-02-14T09:40:15;6.18;;;5.57;;
9888;SDS011;4983;42.112;24.738;2024-02-14T09:42:44;8.63;;;7.10;;
9888;SDS011;4983;42.112;24.738;2024-02-14T09:45:13;9.18;;;7.43;;
9888;SDS011;4983;42.112;24.738;2024-02-14T09:47:39;7.68;;;6.30;;
9888;SDS011;4983;42.112;24.738;2024-02-14T09:50:06;11.98;;;6.85;;
9888;SDS011;4983;42.112;24.738;2024-02-14T09:52:33;9.98;;;6.53;;
9888;SDS011;4983;42.112;24.738;2024-02-14T09:54:59;7.43;;;6.45;;
9888;SDS011;4983;42.112;24.738;2024-02-14T09:57:28;9.73;;;7.00;;
9888;SDS011;4983;42.112;24.738;2024-02-14T09:59:54;11.40;;;7.97;;
9888;SDS011;4983;42.112;24.738;2024-02-14T10:02:21;8.98;;;7.53;;
9888;SDS011;4983;42.112;24.738;2024-02-14T10:04:47;12.70;;;7.57;;
9888;SDS011;4983;42.112;24.738;2024-02-14T10:07:13;9.90;;;7.32;;
9888;SDS011;4983;42.112;24.738;2024-02-14T10:09:41;10.25;;;7.03;;
9888;SDS011;4983;42.112;24.738;2024-02-14T10:12:08;9.57;;;7.15;;
9888;SDS011;4983;42.112;24.738;2024-02-14T10:14:34;9.27;;;7.60;;
9888;SDS011;4983;42.112;24.738;2024-02-14T10:17:01;8.63;;;6.82;;
9888;SDS011;4983;42.112;24.738;2024-02-14T10:19:28;6.35;;;5.47;;
9888;SDS011;4983;42.112;24.738;2024-02-14T10:21:57;10.27;;;6.63;;
9888;SDS011;4983;42.112;24.738;2024-02-14T10:24:27;7.13;;;5.70;;
9888;SDS011;4983;42.112;24.738;2024-02-14T10:26:53;11.38;;;7.63;;
9888;SDS011;4983;42.112;24.738;2024-02-14T10:29:19;7.82;;;6.43;;
9888;SDS011;4983;42.112;24.738;2024-02-14T10:31:45;9.45;;;6.93;;
9888;SDS011;4983;42.112;24.738;2024-02-14T10:34:11;8.35;;;5.53;;
9888;SDS011;4983;42.112;24.738;2024-02-14T10:36:37;6.93;;;5.68;;
9888;SDS011;4983;42.112;24.738;2024-02-14T10:39:06;7.40;;;5.53;;
9888;SDS011;4983;42.112;24.738;2024-02-14T10:41:33;9.38;;;6.53;;
9888;SDS011;4983;42.112;24.738;2024-02-14T10:44:03;10.88;;;7.85;;
9888;SDS011;4983;42.112;24.738;2024-02-14T10:46:35;10.00;;;6.10;;
9888;SDS011;4983;42.112;24.738;2024-02-14T10:49:03;8.43;;;6.63;;
9888;SDS011;4983;42.112;24.738;2024-02-14T10:51:33;9.15;;;7.22;;
9888;SDS011;4983;42.112;24.738;2024-02-14T10:54:01;8.05;;;7.25;;
9888;SDS011;4983;42.112;24.738;2024-02-14T10:56:31;7.20;;;6.57;;
9888;SDS011;4983;42.112;24.738;2024-02-14T10:58:57;6.93;;;6.30;;
9888;SDS011;4983;42.112;24.738;2024-02-14T11:01:26;7.35;;;6.70;;
9888;SDS011;4983;42.112;24.738;2024-02-14T11:03:55;7.15;;;6.45;;
9888;SDS011;4983;42.112;24.738;2024-02-14T11:06:23;7.30;;;6.63;;
9888;SDS011;4983;42.112;24.738;2024-02-14T11:08:55;7.22;;;5.70;;
9888;SDS011;4983;42.112;24.738;2024-02-14T11:11:35;10.50;;;7.45;;
9888;SDS011;4983;42.112;24.738;2024-02-14T11:14:02;7.57;;;6.45;;
9888;SDS011;4983;42.112;24.738;2024-02-14T11:16:30;7.03;;;6.30;;
9888;SDS011;4983;42.112;24.738;2024-02-14T11:19:08;7.88;;;5.93;;
9888;SDS011;4983;42.112;24.738;2024-02-14T11:21:40;10.20;;;6.47;;
9888;SDS011;4983;42.112;24.738;2024-02-14T11:24:11;6.13;;;5.50;;
9888;SDS011;4983;42.112;24.738;2024-02-14T11:29:16;6.80;;;6.10;;
9888;SDS011;4983;42.112;24.738;2024-02-14T11:31:42;6.68;;;5.75;;
9888;SDS011;4983;42.112;24.738;2024-02-14T11:34:08;8.93;;;5.88;;
9888;SDS011;4983;42.112;24.738;2024-02-14T11:36:36;6.00;;;5.45;;
9888;SDS011;4983;42.112;24.738;2024-02-14T11:39:02;7.40;;;6.40;;
9888;SDS011;4983;42.112;24.738;2024-02-14T11:41:30;6.72;;;5.97;;
9888;SDS011;4983;42.112;24.738;2024-02-14T11:44:00;6.28;;;5.63;;
9888;SDS011;4983;42.112;24.738;2024-02-14T11:46:28;5.70;;;5.20;;
9888;SDS011;4983;42.112;24.738;2024-02-14T11:48:58;5.53;;;5.03;;
9888;SDS011;4983;42.112;24.738;2024-02-14T11:51:26;10.00;;;7.80;;
9888;SDS011;4983;42.112;24.738;2024-02-14T11:53:53;9.15;;;7.63;;
9888;SDS011;4983;42.112;24.738;2024-02-14T11:56:20;7.63;;;6.88;;
9888;SDS011;4983;42.112;24.738;2024-02-14T11:58:47;6.97;;;4.53;;
9888;SDS011;4983;42.112;24.738;2024-02-14T12:01:16;11.63;;;5.50;;
9888;SDS011;4983;42.112;24.738;2024-02-14T12:03:44;5.35;;;4.93;;
9888;SDS011;4983;42.112;24.738;2024-02-14T12:06:11;7.15;;;6.10;;
9888;SDS011;4983;42.112;24.738;2024-02-14T12:08:37;4.85;;;4.38;;
9888;SDS011;4983;42.112;24.738;2024-02-14T12:11:03;5.90;;;5.32;;
9888;SDS011;4983;42.112;24.738;2024-02-14T12:13:30;12.38;;;6.25;;
9888;SDS011;4983;42.112;24.738;2024-02-14T12:15:57;6.57;;;5.90;;
9888;SDS011;4983;42.112;24.738;2024-02-14T12:18:23;5.78;;;5.25;;
9888;SDS011;4983;42.112;24.738;2024-02-14T12:20:48;8.48;;;5.95;;
9888;SDS011;4983;42.112;24.738;2024-02-14T12:23:17;6.65;;;5.32;;
9888;SDS011;4983;42.112;24.738;2024-02-14T12:25:43;13.77;;;6.35;;
9888;SDS011;4983;42.112;24.738;2024-02-14T12:28:20;11.02;;;6.18;;
9888;SDS011;4983;42.112;24.738;2024-02-14T12:30:50;9.35;;;4.32;;
9888;SDS011;4983;42.112;24.738;2024-02-14T12:33:22;7.93;;;5.15;;
9888;SDS011;4983;42.112;24.738;2024-02-14T12:35:49;10.65;;;5.93;;
9888;SDS011;4983;42.112;24.738;2024-02-14T12:38:16;6.40;;;5.35;;
9888;SDS011;4983;42.112;24.738;2024-02-14T12:40:43;8.93;;;6.07;;
9888;SDS011;4983;42.112;24.738;2024-02-14T12:43:12;9.07;;;5.68;;
9888;SDS011;4983;42.112;24.738;2024-02-14T12:45:38;6.65;;;5.80;;
9888;SDS011;4983;42.112;24.738;2024-02-14T12:48:07;7.97;;;5.72;;
9888;SDS011;4983;42.112;24.738;2024-02-14T12:50:34;4.50;;;3.78;;
9888;SDS011;4983;42.112;24.738;2024-02-14T12:53:03;21.98;;;5.97;;
9888;SDS011;4983;42.112;24.738;2024-02-14T12:55:29;9.35;;;5.85;;
9888;SDS011;4983;42.112;24.738;2024-02-14T12:57:55;6.75;;;6.10;;
9888;SDS011;4983;42.112;24.738;2024-02-14T13:00:22;5.10;;;4.53;;
9888;SDS011;4983;42.112;24.738;2024-02-14T13:02:48;4.85;;;4.47;;
9888;SDS011;4983;42.112;24.738;2024-02-14T13:05:14;8.45;;;5.57;;
9888;SDS011;4983;42.112;24.738;2024-02-14T13:07:40;5.20;;;4.70;;
9888;SDS011;4983;42.112;24.738;2024-02-14T13:10:06;5.72;;;5.07;;
9888;SDS011;4983;42.112;24.738;2024-02-14T13:12:34;12.10;;;5.63;;
9888;SDS011;4983;42.112;24.738;2024-02-14T13:15:00;7.05;;;6.35;;
9888;SDS011;4983;42.112;24.738;2024-02-14T13:17:26;10.05;;;3.92;;
9888;SDS011;4983;42.112;24.738;2024-02-14T13:19:52;17.02;;;6.43;;
9888;SDS011;4983;42.112;24.738;2024-02-14T13:22:18;15.70;;;5.95;;
9888;SDS011;4983;42.112;24.738;2024-02-14T13:24:44;6.22;;;5.72;;
9888;SDS011;4983;42.112;24.738;2024-02-14T13:27:10;7.78;;;5.20;;
9888;SDS011;4983;42.112;24.738;2024-02-14T13:29:35;4.68;;;4.28;;
9888;SDS011;4983;42.112;24.738;2024-02-14T13:32:01;6.80;;;6.18;;
9888;SDS011;4983;42.112;24.738;2024-02-14T13:34:27;5.47;;;4.97;;
9888;SDS011;4983;42.112;24.738;2024-02-14T13:36:53;7.18;;;4.82;;
9888;SDS011;4983;42.112;24.738;2024-02-14T13:39:19;14.50;;;6.10;;
9888;SDS011;4983;42.112;24.738;2024-02-14T13:41:44;9.45;;;5.68;;
9888;SDS011;4983;42.112;24.738;2024-02-14T13:44:10;6.30;;;5.10;;
9888;SDS011;4983;42.112;24.738;2024-02-14T13:46:36;7.55;;;5.38;;
9888;SDS011;4983;42.112;24.738;2024-02-14T13:49:02;5.68;;;5.18;;
9888;SDS011;4983;42.112;24.738;2024-02-14T13:51:28;18.13;;;9.30;;
9888;SDS011;4983;42.112;24.738;2024-02-14T13:53:54;6.30;;;5.80;;
9888;SDS011;4983;42.112;24.738;2024-02-14T13:56:20;11.10;;;5.53;;
9888;SDS011;4983;42.112;24.738;2024-02-14T13:58:48;5.22;;;3.92;;
9888;SDS011;4983;42.112;24.738;2024-02-14T14:01:14;27.73;;;6.30;;
9888;SDS011;4983;42.112;24.738;2024-02-14T14:03:40;27.90;;;12.80;;
9888;SDS011;4983;42.112;24.738;2024-02-14T14:06:06;7.25;;;5.28;;
9888;SDS011;4983;42.112;24.738;2024-02-14T14:08:35;13.45;;;7.63;;
9888;SDS011;4983;42.112;24.738;2024-02-14T14:11:04;7.07;;;5.88;;
9888;SDS011;4983;42.112;24.738;2024-02-14T14:13:30;14.85;;;6.18;;
9888;SDS011;4983;42.112;24.738;2024-02-14T14:15:56;10.77;;;7.05;;
9888;SDS011;4983;42.112;24.738;2024-02-14T14:18:22;10.77;;;7.75;;
9888;SDS011;4983;42.112;24.738;2024-02-14T14:20:51;5.00;;;4.60;;
9888;SDS011;4983;42.112;24.738;2024-02-14T14:23:17;4.88;;;4.35;;
9888;SDS011;4983;42.112;24.738;2024-02-14T14:25:43;10.80;;;5.28;;
9888;SDS011;4983;42.112;24.738;2024-02-14T14:28:08;10.65;;;3.85;;
9888;SDS011;4983;42.112;24.738;2024-02-14T14:30:35;11.30;;;4.47;;
9888;SDS011;4983;42.112;24.738;2024-02-14T14:33:01;8.35;;;4.15;;
9888;SDS011;4983;42.112;24.738;2024-02-14T14:35:27;7.13;;;5.20;;
9888;SDS011;4983;42.112;24.738;2024-02-14T14:37:54;5.50;;;4.43;;
9888;SDS011;4983;42.112;24.738;2024-02-14T14:40:19;7.60;;;4.25;;
9888;SDS011;4983;42.112;24.738;2024-02-14T14:42:46;16.52;;;5.97;;
9888;SDS011;4983;42.112;24.738;2024-02-14T14:45:12;8.88;;;4.68;;
9888;SDS011;4983;42.112;24.738;2024-02-14T14:47:38;10.27;;;4.63;;
9888;SDS011;4983;42.112;24.738;2024-02-14T14:50:04;13.23;;;7.60;;
9888;SDS011;4983;42.112;24.738;2024-02-14T14:52:32;6.82;;;4.53;;
9888;SDS011;4983;42.112;24.738;2024-02-14T14:54:58;4.93;;;4.43;;
9888;SDS011;4983;42.112;24.738;2024-02-14T14:57:24;5.38;;;3.45;;